Time;durP1;ratioP1;P1;durP2;ratioP2;P2;SDS_P1;SDS_P2;PMS_P1;PMS_P2;Temp;Humidity;BMP_temperature;BMP_pressure;BME280_temperature;BME280_humidity;BME280_pressure;Samples;Min_cycle;Max_cycle;Signal;HPM_P1;HPM_P2
2023/09/30 00:00:17;;;;;;;8.32;4.70;;;15.00;99.90;;;;;;2077075;28;20040;-74
2023/09/30 00:01:18;;;;;;;8.43;5.35;;;15.00;99.90;;;;;;2077391;28;20030;-74
2023/09/30 00:02:19;;;;;;;12.02;5.68;;;15.00;99.90;;;;;;2075654;28;20152;-74
2023/09/30 00:03:19;;;;;;;11.10;4.80;;;15.00;99.90;;;;;;2076228;28;20033;-74
2023/09/30 00:04:20;;;;;;;9.38;5.18;;;15.00;99.90;;;;;;2068103;28;20030;-74
2023/09/30 00:05:21;;;;;;;9.75;5.30;;;15.00;99.90;;;;;;2067096;28;20033;-74
2023/09/30 00:06:21;;;;;;;10.80;5.18;;;15.00;99.90;;;;;;2077202;28;20127;-74
2023/09/30 00:07:22;;;;;;;7.70;4.38;;;14.90;99.90;;;;;;2076793;28;20079;-74
2023/09/30 00:08:22;;;;;;;8.82;4.80;;;14.90;99.90;;;;;;2076486;28;20036;-74
2023/09/30 00:09:23;;;;;;;8.18;4.50;;;14.90;99.90;;;;;;2066175;28;20038;-74
2023/09/30 00:10:23;;;;;;;10.93;5.43;;;14.90;99.90;;;;;;2064859;28;20524;-74
2023/09/30 00:11:24;;;;;;;12.60;5.10;;;14.90;99.90;;;;;;2075172;28;20055;-74
2023/09/30 00:12:24;;;;;;;7.57;4.75;;;14.90;99.90;;;;;;2076966;28;20068;-74
2023/09/30 00:13:25;;;;;;;10.48;4.95;;;14.90;99.90;;;;;;2076338;28;20575;-74
2023/09/30 00:14:25;;;;;;;11.05;5.38;;;14.90;99.90;;;;;;2069244;28;20053;-74
2023/09/30 00:15:26;;;;;;;14.55;5.00;;;14.90;99.90;;;;;;2066753;28;20030;-74
2023/09/30 00:16:27;;;;;;;10.95;5.25;;;14.80;99.90;;;;;;2075701;28;20038;-74
2023/09/30 00:17:27;;;;;;;10.40;5.20;;;14.90;99.90;;;;;;2069950;28;20036;-74
2023/09/30 00:18:28;;;;;;;12.95;5.15;;;14.80;99.90;;;;;;2067077;28;20101;-74
2023/09/30 00:19:29;;;;;;;13.13;4.88;;;14.80;99.90;;;;;;2077127;28;20052;-74
2023/09/30 00:20:29;;;;;;;10.18;5.07;;;14.80;99.90;;;;;;2068359;28;20021;-74
2023/09/30 00:21:30;;;;;;;10.52;5.40;;;14.80;99.90;;;;;;2069115;28;20119;-74
2023/09/30 00:22:30;;;;;;;10.27;5.00;;;14.80;99.90;;;;;;2060255;28;20664;-74
2023/09/30 00:23:31;;;;;;;12.23;5.18;;;14.80;99.90;;;;;;2069252;28;20057;-74
2023/09/30 00:24:31;;;;;;;9.93;5.20;;;14.80;99.90;;;;;;2073907;28;20030;-74
2023/09/30 00:25:33;;;;;;;12.73;5.32;;;14.80;99.90;;;;;;2075770;28;20025;-74
2023/09/30 00:26:33;;;;;;;10.32;5.00;;;14.80;99.90;;;;;;2075641;28;20538;-74
2023/09/30 00:27:34;;;;;;;10.43;4.40;;;14.80;99.90;;;;;;2067898;28;20594;-74
2023/09/30 00:28:34;;;;;;;9.73;4.80;;;14.80;99.90;;;;;;2070693;28;20104;-74
2023/09/30 00:29:35;;;;;;;12.55;4.57;;;14.80;99.90;;;;;;2075815;28;20061;-74
2023/09/30 00:30:35;;;;;;;8.60;5.13;;;14.80;99.90;;;;;;2076131;28;20033;-74
2023/09/30 00:31:36;;;;;;;12.52;5.50;;;14.80;99.90;;;;;;2074650;28;20029;-74
2023/09/30 00:32:37;;;;;;;13.70;5.68;;;14.80;99.90;;;;;;2077157;28;20030;-74
2023/09/30 00:33:37;;;;;;;9.40;5.15;;;14.80;99.90;;;;;;2065759;28;20056;-74
2023/09/30 00:34:40;;;;;;;12.25;5.65;;;14.80;99.90;;;;;;2067420;28;20547;-74
2023/09/30 00:35:40;;;;;;;14.27;6.00;;;14.80;99.90;;;;;;2077790;28;20021;-74
2023/09/30 00:36:41;;;;;;;9.80;5.03;;;14.70;99.90;;;;;;2066567;28;20026;-74
2023/09/30 00:37:42;;;;;;;10.60;4.70;;;14.70;99.90;;;;;;2067961;28;20875;-74
2023/09/30 00:38:42;;;;;;;12.45;5.22;;;14.70;99.90;;;;;;2076499;28;20053;-74
2023/09/30 00:39:44;;;;;;;9.73;4.93;;;14.70;99.90;;;;;;2077376;28;20030;-74
2023/09/30 00:40:48;;;;;;;9.95;4.85;;;14.80;99.90;;;;;;2073715;28;20028;-74
2023/09/30 00:41:49;;;;;;;10.20;4.40;;;14.80;99.90;;;;;;2066897;28;20030;-74
2023/09/30 00:42:49;;;;;;;9.02;5.25;;;14.70;99.90;;;;;;2066715;28;20568;-74
2023/09/30 00:43:50;;;;;;;11.13;4.85;;;14.70;99.90;;;;;;2075778;28;20037;-74
2023/09/30 00:44:51;;;;;;;13.23;5.28;;;14.70;99.90;;;;;;2076333;28;20033;-74
2023/09/30 00:46:01;;;;;;;10.30;4.97;;;14.70;99.90;;;;;;2076092;28;20496;-74
2023/09/30 00:47:02;;;;;;;12.60;5.63;;;14.70;99.90;;;;;;2075382;28;20021;-74
2023/09/30 00:48:03;;;;;;;10.85;5.13;;;14.70;99.90;;;;;;2076186;28;20025;-74
2023/09/30 00:49:04;;;;;;;11.00;5.18;;;14.70;99.90;;;;;;2076189;28;20070;-74
2023/09/30 00:50:07;;;;;;;12.68;5.65;;;14.80;99.90;;;;;;2076871;28;20044;-74
2023/09/30 00:51:08;;;;;;;20.00;5.50;;;14.70;99.90;;;;;;2075540;28;20084;-74
2023/09/30 00:52:09;;;;;;;11.90;5.43;;;14.80;99.90;;;;;;2076424;28;20030;-74
2023/09/30 00:53:10;;;;;;;10.13;4.50;;;14.70;99.90;;;;;;2077488;28;20960;-74
2023/09/30 00:54:10;;;;;;;12.57;5.28;;;14.80;99.90;;;;;;2077014;28;20112;-74
2023/09/30 00:55:12;;;;;;;13.50;5.47;;;14.80;99.90;;;;;;2076956;28;20036;-74
2023/09/30 00:56:13;;;;;;;10.40;5.57;;;14.70;99.90;;;;;;2075640;28;20022;-74
2023/09/30 00:57:14;;;;;;;13.18;5.63;;;14.80;99.90;;;;;;2076148;28;20037;-74
2023/09/30 00:58:16;;;;;;;14.05;5.35;;;14.80;99.90;;;;;;2075806;28;20055;-74
2023/09/30 00:59:17;;;;;;;8.93;5.13;;;14.80;99.90;;;;;;2076468;28;20044;-74
2023/09/30 01:00:19;;;;;;;9.48;5.10;;;14.70;99.90;;;;;;2069605;28;20025;-74
2023/09/30 01:01:23;;;;;;;11.00;5.32;;;14.70;99.90;;;;;;2068855;28;20032;-74
2023/09/30 01:02:24;;;;;;;9.40;4.82;;;14.70;99.90;;;;;;2067454;28;20065;-74
2023/09/30 01:03:25;;;;;;;10.00;5.30;;;14.70;99.90;;;;;;2064018;28;20030;-73
2023/09/30 01:04:27;;;;;;;8.02;4.32;;;14.70;99.90;;;;;;2076426;28;20053;-74
2023/09/30 01:05:27;;;;;;;13.02;5.28;;;14.80;99.90;;;;;;2075199;28;20630;-73
2023/09/30 01:06:28;;;;;;;12.27;4.97;;;14.80;99.90;;;;;;2076252;28;20037;-74
2023/09/30 01:07:28;;;;;;;12.88;5.20;;;14.80;99.90;;;;;;2065264;28;20040;-73
2023/09/30 01:08:29;;;;;;;13.18;4.80;;;14.80;99.90;;;;;;2058002;28;20027;-73
2023/09/30 01:09:30;;;;;;;11.20;5.45;;;14.80;99.90;;;;;;2062326;28;20966;-74
2023/09/30 01:10:31;;;;;;;10.25;4.88;;;14.80;99.90;;;;;;2074125;28;20034;-74
2023/09/30 01:11:31;;;;;;;10.40;5.07;;;14.80;99.90;;;;;;2075213;28;20017;-74
2023/09/30 01:12:32;;;;;;;10.75;5.82;;;14.80;99.90;;;;;;2077334;28;20460;-74
2023/09/30 01:13:34;;;;;;;12.77;5.65;;;14.70;99.90;;;;;;2077344;28;20931;-73
2023/09/30 01:14:37;;;;;;;8.70;5.28;;;14.80;99.90;;;;;;2076245;28;20021;-73
2023/09/30 01:15:38;;;;;;;9.82;5.05;;;14.80;99.90;;;;;;2077457;28;20028;-73
2023/09/30 01:16:39;;;;;;;10.95;5.90;;;14.70;99.90;;;;;;2075890;28;20507;-74
2023/09/30 01:17:40;;;;;;;12.38;5.32;;;14.80;99.90;;;;;;2077067;28;20017;-74
2023/09/30 01:18:42;;;;;;;8.27;4.28;;;14.80;99.90;;;;;;2075012;28;20053;-74
2023/09/30 01:19:42;;;;;;;9.63;5.07;;;14.80;99.90;;;;;;2069095;28;20603;-74
2023/09/30 01:20:43;;;;;;;11.02;5.07;;;14.70;99.90;;;;;;2066145;28;20468;-74
2023/09/30 01:21:48;;;;;;;12.32;5.55;;;14.80;99.90;;;;;;2074583;28;20037;-73
2023/09/30 01:22:48;;;;;;;11.98;5.10;;;14.80;99.90;;;;;;2075935;28;20084;-74
2023/09/30 01:23:49;;;;;;;10.40;5.03;;;14.80;99.90;;;;;;2075445;28;20188;-74
2023/09/30 01:24:49;;;;;;;11.20;5.60;;;14.80;99.90;;;;;;2076063;28;20365;-74
2023/09/30 01:25:50;;;;;;;10.15;5.85;;;14.80;99.90;;;;;;2074774;28;20081;-73
2023/09/30 01:26:50;;;;;;;9.85;5.40;;;14.80;99.90;;;;;;2075162;28;20026;-74
2023/09/30 01:27:51;;;;;;;11.35;4.88;;;14.80;99.90;;;;;;2077885;28;20034;-74
2023/09/30 01:28:52;;;;;;;11.55;5.53;;;14.80;99.90;;;;;;2064640;28;20026;-73
2023/09/30 01:29:52;;;;;;;10.25;5.40;;;14.80;99.90;;;;;;2066927;28;20719;-74
2023/09/30 01:30:53;;;;;;;12.63;5.65;;;14.80;99.90;;;;;;2074335;28;20036;-74
2023/09/30 01:31:53;;;;;;;11.45;5.45;;;14.80;99.90;;;;;;2065529;28;20033;-74
2023/09/30 01:32:54;;;;;;;10.75;5.22;;;14.80;99.90;;;;;;2065082;28;20432;-74
2023/09/30 01:33:55;;;;;;;9.73;5.20;;;14.80;99.90;;;;;;2074308;28;20053;-73
2023/09/30 01:34:56;;;;;;;10.57;5.65;;;14.80;99.90;;;;;;2068898;28;20624;-74
2023/09/30 01:35:57;;;;;;;12.93;5.43;;;14.80;99.90;;;;;;2066362;28;21081;-74
2023/09/30 01:36:57;;;;;;;9.50;4.95;;;14.80;99.90;;;;;;2075248;28;20057;-74
2023/09/30 01:37:58;;;;;;;15.80;6.15;;;14.80;99.90;;;;;;2077266;28;20018;-74
2023/09/30 01:38:59;;;;;;;13.88;6.45;;;14.80;99.90;;;;;;2074773;28;20644;-74
2023/09/30 01:39:59;;;;;;;12.32;5.75;;;14.80;99.90;;;;;;2075545;28;20021;-74
2023/09/30 01:41:00;;;;;;;9.32;5.20;;;14.80;99.90;;;;;;2076128;28;20037;-74
2023/09/30 01:42:00;;;;;;;12.80;5.45;;;14.80;99.90;;;;;;2077112;28;20393;-74
2023/09/30 01:43:01;;;;;;;11.70;5.68;;;14.80;99.90;;;;;;2074817;28;20029;-74
2023/09/30 01:44:02;;;;;;;12.32;6.53;;;14.80;99.90;;;;;;2065375;28;20014;-74
2023/09/30 01:45:03;;;;;;;10.68;5.93;;;14.80;99.90;;;;;;2066164;28;20044;-74
2023/09/30 01:46:05;;;;;;;11.85;5.38;;;14.80;99.90;;;;;;2077022;28;20072;-74
2023/09/30 01:47:06;;;;;;;8.77;4.68;;;14.80;99.90;;;;;;2074283;28;20108;-74
2023/09/30 01:48:10;;;;;;;12.38;5.28;;;14.80;99.90;;;;;;2075932;28;20776;-74
2023/09/30 01:49:11;;;;;;;10.98;5.43;;;14.80;99.90;;;;;;2064257;28;20034;-74
2023/09/30 01:50:11;;;;;;;12.98;6.15;;;14.80;99.90;;;;;;2065519;28;20033;-74
2023/09/30 01:51:13;;;;;;;12.45;5.97;;;14.80;99.90;;;;;;2076260;28;20030;-74
2023/09/30 01:52:14;;;;;;;12.75;6.40;;;14.80;99.90;;;;;;2076620;28;20037;-74
2023/09/30 01:53:14;;;;;;;13.32;5.85;;;14.80;99.90;;;;;;2069687;28;20083;-74
2023/09/30 01:54:15;;;;;;;12.00;5.78;;;14.80;99.90;;;;;;2069058;28;20096;-74
2023/09/30 01:55:16;;;;;;;12.85;6.28;;;14.80;99.90;;;;;;2074774;28;20077;-74
2023/09/30 01:56:16;;;;;;;8.73;5.15;;;14.80;99.90;;;;;;2076172;28;20088;-74
2023/09/30 01:57:17;;;;;;;10.77;5.60;;;14.80;99.90;;;;;;2069357;28;20096;-73
2023/09/30 01:58:17;;;;;;;10.45;5.78;;;14.70;99.90;;;;;;2069879;28;20045;-74
2023/09/30 01:59:18;;;;;;;11.82;6.00;;;14.80;99.90;;;;;;2076032;28;20074;-74
2023/09/30 02:00:19;;;;;;;15.25;6.15;;;14.80;99.90;;;;;;2075486;28;20369;-74
2023/09/30 02:01:20;;;;;;;13.98;6.15;;;14.80;99.90;;;;;;2074784;28;20026;-74
2023/09/30 02:02:21;;;;;;;10.80;5.78;;;14.80;99.90;;;;;;2077031;28;20059;-74
2023/09/30 02:03:21;;;;;;;12.70;6.20;;;14.80;99.90;;;;;;2075552;28;20055;-74
2023/09/30 02:04:23;;;;;;;14.05;5.78;;;14.80;99.90;;;;;;2074972;28;20084;-74
2023/09/30 02:05:24;;;;;;;10.50;5.80;;;14.80;99.90;;;;;;2069368;28;20095;-74
2023/09/30 02:06:24;;;;;;;15.38;6.72;;;14.80;99.90;;;;;;2069612;28;20030;-74
2023/09/30 02:07:25;;;;;;;11.52;5.10;;;14.80;99.90;;;;;;2075410;28;20117;-74
2023/09/30 02:08:25;;;;;;;12.90;6.22;;;14.80;99.90;;;;;;2075188;28;20040;-74
2023/09/30 02:09:26;;;;;;;10.90;5.97;;;14.80;99.90;;;;;;2076721;28;20400;-74
2023/09/30 02:10:26;;;;;;;12.10;5.65;;;14.80;99.90;;;;;;2076771;28;20042;-74
2023/09/30 02:11:27;;;;;;;10.30;5.15;;;14.80;99.90;;;;;;2068036;28;20030;-74
2023/09/30 02:12:28;;;;;;;13.07;6.55;;;14.80;99.90;;;;;;2068048;28;20109;-74
2023/09/30 02:13:29;;;;;;;12.15;5.57;;;14.80;99.90;;;;;;2075072;28;20033;-74
2023/09/30 02:14:30;;;;;;;15.88;6.88;;;14.80;99.90;;;;;;2075405;28;20030;-74
2023/09/30 02:15:30;;;;;;;11.02;5.72;;;14.80;99.90;;;;;;2073303;28;20128;-74
2023/09/30 02:16:31;;;;;;;8.75;5.15;;;14.80;99.90;;;;;;2067777;28;20037;-74
2023/09/30 02:17:31;;;;;;;14.38;6.10;;;14.80;99.90;;;;;;2066644;28;20748;-74
2023/09/30 02:18:32;;;;;;;8.38;5.20;;;14.70;99.90;;;;;;2077067;28;20022;-74
2023/09/30 02:19:33;;;;;;;10.57;5.53;;;14.80;99.90;;;;;;2075690;28;20273;-74
2023/09/30 02:20:34;;;;;;;10.73;5.78;;;14.80;99.90;;;;;;2077090;28;20670;-74
2023/09/30 02:21:35;;;;;;;10.75;5.80;;;14.70;99.90;;;;;;2075543;28;20373;-73
2023/09/30 02:22:36;;;;;;;8.02;4.93;;;14.70;99.90;;;;;;2067863;28;20026;-74
2023/09/30 02:23:36;;;;;;;11.90;6.43;;;14.70;99.90;;;;;;2068007;28;20029;-74
2023/09/30 02:24:37;;;;;;;9.80;5.38;;;14.70;99.90;;;;;;2075965;28;20042;-74
2023/09/30 02:25:38;;;;;;;10.05;5.38;;;14.70;99.90;;;;;;2075525;28;20079;-74
2023/09/30 02:26:39;;;;;;;8.85;5.43;;;14.70;99.90;;;;;;2076214;28;20065;-74
2023/09/30 02:27:43;;;;;;;14.55;6.78;;;14.70;99.90;;;;;;2076759;28;20034;-74
2023/09/30 02:28:43;;;;;;;11.77;5.40;;;14.70;99.90;;;;;;2076553;28;20736;-74
2023/09/30 02:29:44;;;;;;;11.57;6.03;;;14.70;99.90;;;;;;2077599;28;20467;-74
2023/09/30 02:30:44;;;;;;;9.68;5.32;;;14.70;99.90;;;;;;2067256;28;20048;-74
2023/09/30 02:31:45;;;;;;;12.02;5.38;;;14.70;99.90;;;;;;2074039;28;20052;-74
2023/09/30 02:32:46;;;;;;;9.85;5.32;;;14.70;99.90;;;;;;2076842;28;20477;-74
2023/09/30 02:33:46;;;;;;;10.30;5.50;;;14.70;99.90;;;;;;2077769;28;20036;-74
2023/09/30 02:34:47;;;;;;;13.05;5.30;;;14.70;99.90;;;;;;2075523;28;20072;-73
2023/09/30 02:35:48;;;;;;;10.35;4.82;;;14.70;99.90;;;;;;2075266;28;20108;-74
2023/09/30 02:36:48;;;;;;;11.80;5.45;;;14.70;99.90;;;;;;2076955;28;20420;-73
2023/09/30 02:37:52;;;;;;;13.23;4.97;;;14.70;99.90;;;;;;2070369;28;20018;-74
2023/09/30 02:38:53;;;;;;;10.32;5.07;;;14.70;99.90;;;;;;2068028;28;20452;-73
2023/09/30 02:39:53;;;;;;;7.88;4.43;;;14.70;99.90;;;;;;2077379;28;20037;-74
2023/09/30 02:40:54;;;;;;;11.55;5.68;;;14.70;99.90;;;;;;2076215;28;20075;-74
2023/09/30 02:41:55;;;;;;;9.60;4.88;;;14.60;99.90;;;;;;2076777;28;20033;-74
2023/09/30 02:42:55;;;;;;;9.23;5.32;;;14.60;99.90;;;;;;2075453;28;20057;-74
2023/09/30 02:43:56;;;;;;;10.95;5.28;;;14.60;99.90;;;;;;2070454;28;20034;-74
2023/09/30 02:45:00;;;;;;;13.02;5.85;;;14.60;99.90;;;;;;2069574;28;20454;-74
2023/09/30 02:46:00;;;;;;;11.32;4.75;;;14.60;99.90;;;;;;2070263;28;20038;-74
2023/09/30 02:47:01;;;;;;;10.95;5.03;;;14.70;99.90;;;;;;2070111;28;20061;-74
2023/09/30 02:48:01;;;;;;;9.73;5.07;;;14.60;99.90;;;;;;2068914;28;20057;-74
2023/09/30 02:49:02;;;;;;;14.57;5.20;;;14.60;99.90;;;;;;2069020;28;20022;-74
2023/09/30 02:50:04;;;;;;;10.73;5.65;;;14.60;99.90;;;;;;2077441;28;20018;-74
2023/09/30 02:51:09;;;;;;;11.10;5.57;;;14.60;99.90;;;;;;2078115;28;20699;-74
2023/09/30 02:52:10;;;;;;;9.85;5.20;;;14.60;99.90;;;;;;2076420;28;20021;-74
2023/09/30 02:53:12;;;;;;;9.43;5.45;;;14.60;99.90;;;;;;2069265;28;20037;-74
2023/09/30 02:54:16;;;;;;;9.90;4.85;;;14.60;99.90;;;;;;2070422;28;20018;-74
2023/09/30 02:55:17;;;;;;;9.68;5.30;;;14.60;99.90;;;;;;2078048;28;20021;-74
2023/09/30 02:56:19;;;;;;;10.50;5.00;;;14.60;99.90;;;;;;2078005;28;20028;-74
2023/09/30 02:57:19;;;;;;;10.32;5.28;;;14.50;99.90;;;;;;2077213;28;20025;-73
2023/09/30 02:58:20;;;;;;;9.60;5.30;;;14.60;99.90;;;;;;2077427;28;20057;-73
2023/09/30 02:59:22;;;;;;;10.25;4.95;;;14.60;99.90;;;;;;2075761;28;20021;-74
2023/09/30 03:01:23;;;;;;;7.15;4.47;;;14.50;99.90;;;;;;2077248;28;20034;-73
2023/09/30 03:02:23;;;;;;;10.55;4.80;;;14.50;99.90;;;;;;2075410;28;20064;-73
2023/09/30 03:03:25;;;;;;;10.55;4.72;;;14.50;99.90;;;;;;2076749;28;20022;-74
2023/09/30 03:04:28;;;;;;;16.42;5.55;;;14.50;99.90;;;;;;2077458;28;20789;-74
2023/09/30 03:05:30;;;;;;;11.95;5.22;;;14.50;99.90;;;;;;2069724;28;20041;-74
2023/09/30 03:06:31;;;;;;;11.30;4.65;;;14.50;99.90;;;;;;2068457;28;20030;-73
2023/09/30 03:07:33;;;;;;;14.60;5.68;;;14.50;99.90;;;;;;2078785;28;20024;-73
2023/09/30 03:08:35;;;;;;;9.55;5.22;;;14.40;99.90;;;;;;2076489;28;20029;-74
2023/09/30 03:09:35;;;;;;;9.15;5.20;;;14.40;99.90;;;;;;2075671;28;20461;-73
2023/09/30 03:10:40;;;;;;;9.18;4.55;;;14.40;99.90;;;;;;2076211;28;20068;-74
2023/09/30 03:11:42;;;;;;;12.65;5.45;;;14.40;99.90;;;;;;2076289;28;20030;-73
2023/09/30 03:12:43;;;;;;;8.30;4.80;;;14.40;99.90;;;;;;2076309;28;20006;-73
2023/09/30 03:13:43;;;;;;;9.45;4.32;;;14.40;99.90;;;;;;2076806;28;20017;-73
2023/09/30 03:14:45;;;;;;;8.65;4.53;;;14.40;99.90;;;;;;2074407;28;20029;-73
2023/09/30 03:15:46;;;;;;;9.18;4.95;;;14.40;99.90;;;;;;2068533;28;20022;-73
2023/09/30 03:16:47;;;;;;;10.57;5.38;;;14.30;99.90;;;;;;2068473;28;20380;-73
2023/09/30 03:17:48;;;;;;;10.82;4.63;;;14.30;99.90;;;;;;2077067;28;20029;-73
2023/09/30 03:18:49;;;;;;;8.93;4.40;;;14.30;99.90;;;;;;2076348;28;20029;-73
2023/09/30 03:19:50;;;;;;;12.00;5.13;;;14.30;99.90;;;;;;2077354;28;20680;-74
2023/09/30 03:20:50;;;;;;;8.98;4.85;;;14.30;99.90;;;;;;2068393;28;20041;-74
2023/09/30 03:21:51;;;;;;;9.95;5.10;;;14.30;99.90;;;;;;2067266;28;20033;-74
2023/09/30 03:22:52;;;;;;;9.73;5.13;;;14.30;99.90;;;;;;2077311;28;20472;-73
2023/09/30 03:23:53;;;;;;;10.07;4.93;;;14.30;99.90;;;;;;2064522;28;20030;-73
2023/09/30 03:24:57;;;;;;;10.25;4.43;;;14.30;99.90;;;;;;2066038;28;20072;-73
2023/09/30 03:25:58;;;;;;;8.93;4.82;;;14.30;99.90;;;;;;2076426;28;20105;-73
2023/09/30 03:26:58;;;;;;;10.90;4.75;;;14.30;99.90;;;;;;2076354;28;20041;-73
2023/09/30 03:27:59;;;;;;;6.72;4.18;;;14.30;99.90;;;;;;2066327;28;20048;-73
2023/09/30 03:29:00;;;;;;;12.20;5.05;;;14.30;99.90;;;;;;2058286;28;20030;-73
2023/09/30 03:30:03;;;;;;;10.27;4.50;;;14.30;99.90;;;;;;2071356;28;20445;-73
2023/09/30 03:31:04;;;;;;;12.15;5.05;;;14.30;99.90;;;;;;2067446;28;20261;-73
2023/09/30 03:32:05;;;;;;;11.48;4.57;;;14.30;99.90;;;;;;2068486;28;20034;-73
2023/09/30 03:33:05;;;;;;;7.70;4.63;;;14.30;99.90;;;;;;2075396;28;20072;-74
2023/09/30 03:34:06;;;;;;;11.93;4.60;;;14.30;99.90;;;;;;2075507;28;20033;-73
2023/09/30 03:35:10;;;;;;;7.57;4.65;;;14.20;99.90;;;;;;2077542;28;20045;-73
2023/09/30 03:36:11;;;;;;;10.23;5.18;;;14.30;99.90;;;;;;2068152;28;20508;-73
2023/09/30 03:37:11;;;;;;;8.35;3.95;;;14.20;99.90;;;;;;2066859;28;20026;-73
2023/09/30 03:38:13;;;;;;;13.50;5.22;;;14.20;99.90;;;;;;2068915;28;20033;-73
2023/09/30 03:39:15;;;;;;;9.38;4.57;;;14.20;99.90;;;;;;2058131;28;20014;-73
2023/09/30 03:40:19;;;;;;;11.20;5.15;;;14.20;99.90;;;;;;2067620;28;20113;-73
2023/09/30 03:41:19;;;;;;;10.00;4.47;;;14.20;99.90;;;;;;2078441;28;20473;-73
2023/09/30 03:42:20;;;;;;;8.63;4.90;;;14.20;99.90;;;;;;2066679;28;20433;-73
2023/09/30 03:43:21;;;;;;;12.20;4.93;;;14.20;99.90;;;;;;2069073;28;20574;-73
2023/09/30 03:44:25;;;;;;;7.85;4.32;;;14.20;99.90;;;;;;2076513;28;20104;-73
2023/09/30 03:45:26;;;;;;;8.07;4.97;;;14.20;99.90;;;;;;2075320;28;20671;-73
2023/09/30 03:46:26;;;;;;;14.45;5.43;;;14.20;99.90;;;;;;2077154;28;20021;-73
2023/09/30 03:47:27;;;;;;;8.20;4.40;;;14.20;99.90;;;;;;2075542;28;20072;-73
2023/09/30 03:48:27;;;;;;;9.20;4.82;;;14.10;99.90;;;;;;2075970;28;20411;-73
2023/09/30 03:49:28;;;;;;;7.65;5.03;;;14.10;99.90;;;;;;2076057;28;20053;-73
2023/09/30 03:50:30;;;;;;;10.13;5.18;;;14.10;99.90;;;;;;2076901;28;20037;-73
2023/09/30 03:51:30;;;;;;;9.43;4.63;;;14.10;99.90;;;;;;2076133;28;20022;-73
2023/09/30 03:52:33;;;;;;;11.70;4.90;;;14.10;99.90;;;;;;2076318;28;20025;-73
2023/09/30 03:53:34;;;;;;;8.45;4.95;;;14.10;99.90;;;;;;2075528;28;20112;-73
2023/09/30 03:54:35;;;;;;;11.60;4.72;;;14.10;99.90;;;;;;2078124;28;20033;-73
2023/09/30 03:55:37;;;;;;;13.13;5.43;;;14.10;99.90;;;;;;2076350;28;20116;-73
2023/09/30 03:56:41;;;;;;;11.27;5.55;;;14.10;99.90;;;;;;2075861;28;20030;-73
2023/09/30 03:57:42;;;;;;;10.00;4.60;;;14.10;99.90;;;;;;2075924;28;20018;-73
2023/09/30 03:58:44;;;;;;;8.20;5.20;;;14.10;99.90;;;;;;2075699;28;20117;-73
2023/09/30 03:59:46;;;;;;;9.18;5.05;;;14.10;99.90;;;;;;2075036;28;20072;-73
2023/09/30 04:00:46;;;;;;;8.30;5.05;;;14.10;99.90;;;;;;2073653;28;20061;-73
2023/09/30 04:01:47;;;;;;;9.98;4.70;;;14.10;99.90;;;;;;2073646;28;20037;-73
2023/09/30 04:02:53;;;;;;;10.73;5.00;;;14.10;99.90;;;;;;2075330;28;20030;-73
2023/09/30 04:03:55;;;;;;;10.98;5.15;;;14.10;99.90;;;;;;2064708;28;20045;-73
2023/09/30 04:04:57;;;;;;;10.50;4.95;;;14.10;99.90;;;;;;2067266;28;20413;-73
2023/09/30 04:05:57;;;;;;;8.40;4.18;;;14.10;99.90;;;;;;2075200;28;20025;-73
2023/09/30 04:06:58;;;;;;;12.57;4.85;;;14.10;99.90;;;;;;2076042;28;20034;-73
2023/09/30 04:07:58;;;;;;;11.27;4.50;;;14.10;99.90;;;;;;2077523;28;20703;-73
2023/09/30 04:08:59;;;;;;;12.82;5.55;;;14.10;99.90;;;;;;2076681;28;20025;-73
2023/09/30 04:10:01;;;;;;;9.02;4.43;;;14.10;99.90;;;;;;2077058;28;20071;-73
2023/09/30 04:11:04;;;;;;;10.95;5.03;;;14.10;99.90;;;;;;2077596;28;20393;-73
2023/09/30 04:12:05;;;;;;;12.82;5.72;;;14.10;99.90;;;;;;2075167;28;20069;-73
2023/09/30 04:13:06;;;;;;;10.85;5.20;;;14.00;99.90;;;;;;2074735;28;20040;-73
2023/09/30 04:14:07;;;;;;;10.60;4.70;;;14.00;99.90;;;;;;2076342;28;20029;-73
2023/09/30 04:15:11;;;;;;;9.38;4.72;;;14.00;99.90;;;;;;2076867;28;20034;-73
2023/09/30 04:16:12;;;;;;;10.95;4.85;;;14.00;99.90;;;;;;2076390;28;20052;-73
2023/09/30 04:17:12;;;;;;;8.60;4.97;;;14.00;99.90;;;;;;2077935;28;20036;-73
2023/09/30 04:18:13;;;;;;;8.52;4.68;;;14.00;99.90;;;;;;2075392;28;20078;-73
2023/09/30 04:19:14;;;;;;;8.20;5.05;;;14.00;99.90;;;;;;2077745;28;20045;-73
2023/09/30 04:20:21;;;;;;;9.50;4.15;;;14.00;99.90;;;;;;2077850;28;20535;-73
2023/09/30 04:21:21;;;;;;;8.50;4.22;;;14.00;99.90;;;;;;2075746;28;20132;-73
2023/09/30 04:22:24;;;;;;;7.40;3.90;;;14.00;99.90;;;;;;2074140;28;20091;-73
2023/09/30 04:23:25;;;;;;;13.30;5.50;;;14.00;99.90;;;;;;2074895;28;20026;-73
2023/09/30 04:24:26;;;;;;;9.93;4.78;;;14.00;99.90;;;;;;2073831;28;20116;-73
2023/09/30 04:25:26;;;;;;;7.30;4.63;;;14.00;99.90;;;;;;2073924;28;20530;-73
2023/09/30 04:26:27;;;;;;;11.02;4.75;;;14.00;99.90;;;;;;2066206;28;20031;-73
2023/09/30 04:27:28;;;;;;;10.50;4.80;;;14.00;99.90;;;;;;2067032;28;20026;-73
2023/09/30 04:28:29;;;;;;;10.57;4.85;;;14.00;99.90;;;;;;2065629;28;20661;-73
2023/09/30 04:29:29;;;;;;;11.25;4.63;;;14.00;99.90;;;;;;2074681;28;20029;-73
2023/09/30 04:30:32;;;;;;;8.48;4.65;;;14.00;99.90;;;;;;2076055;28;20541;-73
2023/09/30 04:31:33;;;;;;;10.60;4.28;;;14.00;99.90;;;;;;2076312;28;20018;-73
2023/09/30 04:32:33;;;;;;;9.07;4.50;;;14.00;99.90;;;;;;2076670;28;20026;-73
2023/09/30 04:33:35;;;;;;;9.95;5.15;;;14.00;99.90;;;;;;2070251;28;20533;-73
2023/09/30 04:34:36;;;;;;;6.78;4.50;;;14.00;99.90;;;;;;2069684;28;20112;-73
2023/09/30 04:35:37;;;;;;;10.10;4.90;;;14.00;99.90;;;;;;2076157;28;20483;-73
2023/09/30 04:36:37;;;;;;;12.70;4.70;;;14.00;99.90;;;;;;2077542;28;20022;-73
2023/09/30 04:37:38;;;;;;;11.57;4.95;;;14.00;99.90;;;;;;2070281;28;20056;-73
2023/09/30 04:38:39;;;;;;;9.05;4.60;;;13.90;99.90;;;;;;2072362;28;20109;-73
2023/09/30 04:39:39;;;;;;;8.60;4.85;;;14.00;99.90;;;;;;2067888;28;20026;-73
2023/09/30 04:40:40;;;;;;;9.48;4.65;;;14.00;99.90;;;;;;2066387;28;20140;-73
2023/09/30 04:41:43;;;;;;;8.15;4.20;;;13.90;99.90;;;;;;2074330;28;20037;-73
2023/09/30 04:42:44;;;;;;;9.52;4.82;;;13.90;99.90;;;;;;2067899;28;20030;-73
2023/09/30 04:43:44;;;;;;;10.35;4.50;;;13.90;99.90;;;;;;2060021;28;20129;-73
2023/09/30 04:44:45;;;;;;;8.32;4.32;;;13.90;99.90;;;;;;2067990;28;20053;-73
2023/09/30 04:45:46;;;;;;;9.23;4.78;;;13.90;99.90;;;;;;2071448;28;20376;-73
2023/09/30 04:46:47;;;;;;;10.32;4.40;;;13.90;99.90;;;;;;2063703;28;20018;-73
2023/09/30 04:47:50;;;;;;;11.90;5.82;;;13.90;99.90;;;;;;2069616;28;20026;-73
2023/09/30 04:48:52;;;;;;;6.05;3.88;;;13.90;99.90;;;;;;2075760;28;20024;-73
2023/09/30 04:49:52;;;;;;;6.78;4.40;;;13.90;99.90;;;;;;2075655;28;20033;-73
2023/09/30 04:50:53;;;;;;;9.40;4.07;;;13.90;99.90;;;;;;2075424;28;20037;-73
2023/09/30 04:51:53;;;;;;;9.50;4.10;;;13.90;99.90;;;;;;2075011;28;20022;-73
2023/09/30 04:52:54;;;;;;;9.35;3.80;;;13.90;99.90;;;;;;2076350;28;20025;-73
2023/09/30 04:53:55;;;;;;;7.47;4.07;;;13.90;99.90;;;;;;2075488;28;20037;-73
2023/09/30 04:54:56;;;;;;;7.88;4.15;;;13.90;99.90;;;;;;2075797;28;20495;-73
2023/09/30 04:55:56;;;;;;;10.45;4.60;;;13.90;99.90;;;;;;2077775;28;20029;-73
2023/09/30 04:56:57;;;;;;;7.05;4.13;;;13.90;99.90;;;;;;2077677;28;20033;-73
2023/09/30 04:57:57;;;;;;;7.45;4.32;;;13.90;99.90;;;;;;2075998;28;20030;-73
2023/09/30 04:58:58;;;;;;;10.07;4.20;;;13.90;99.90;;;;;;2074243;28;20149;-73
2023/09/30 04:59:59;;;;;;;8.23;4.10;;;13.90;99.90;;;;;;2066445;28;20445;-73
2023/09/30 05:01:00;;;;;;;9.35;4.45;;;13.90;99.90;;;;;;2066709;28;20080;-73
2023/09/30 05:02:00;;;;;;;10.38;4.30;;;13.80;99.90;;;;;;2075322;28;21084;-73
2023/09/30 05:03:01;;;;;;;9.57;4.43;;;13.80;99.90;;;;;;2075512;28;20572;-73
2023/09/30 05:04:02;;;;;;;7.72;3.78;;;13.80;99.90;;;;;;2075987;28;20057;-73
2023/09/30 05:05:06;;;;;;;8.50;4.18;;;13.80;99.90;;;;;;2074965;28;20059;-73
2023/09/30 05:06:07;;;;;;;7.30;3.75;;;13.80;99.90;;;;;;2076440;28;20513;-73
2023/09/30 05:07:08;;;;;;;9.45;4.47;;;13.80;99.90;;;;;;2076613;28;20088;-73
2023/09/30 05:08:13;;;;;;;11.18;4.13;;;13.80;99.90;;;;;;2076153;28;20511;-73
2023/09/30 05:09:14;;;;;;;7.53;3.63;;;13.80;99.90;;;;;;2065964;28;20044;-73
2023/09/30 05:10:16;;;;;;;9.05;4.30;;;13.80;99.90;;;;;;2066143;28;20032;-73
2023/09/30 05:11:16;;;;;;;7.57;4.00;;;13.80;99.90;;;;;;2065363;28;20457;-73
2023/09/30 05:12:17;;;;;;;12.60;4.47;;;13.80;99.90;;;;;;2065736;28;20093;-73
2023/09/30 05:13:18;;;;;;;13.10;4.95;;;13.80;99.90;;;;;;2074602;28;20025;-73
2023/09/30 05:14:20;;;;;;;7.97;4.20;;;13.80;99.90;;;;;;2075287;28;20026;-73
2023/09/30 05:15:21;;;;;;;8.25;4.10;;;13.80;99.90;;;;;;2077342;28;20545;-73
2023/09/30 05:16:22;;;;;;;9.77;4.82;;;13.80;99.90;;;;;;2076255;28;20535;-73